createdAt,value
2017-12-11T00:01:08.043Z,0.95
2017-12-11T00:03:39.064Z,1.05
2017-12-11T00:06:09.904Z,1.62
2017-12-11T00:08:41.484Z,0.70
2017-12-11T00:11:12.624Z,1.30
2017-12-11T00:13:44.064Z,0.98
2017-12-11T00:16:19.104Z,0.88
2017-12-11T00:18:50.145Z,1.60
2017-12-11T00:21:22.207Z,1.85
2017-12-11T00:23:54.883Z,1.55
2017-12-11T00:26:26.004Z,1.10
2017-12-11T00:28:56.863Z,1.23
2017-12-11T00:31:27.903Z,1.27
2017-12-11T00:33:59.864Z,2.05
2017-12-11T00:36:33.264Z,1.40
2017-12-11T00:39:06.944Z,2.15
2017-12-11T00:41:38.704Z,1.40
2017-12-11T00:44:09.584Z,2.28
2017-12-11T00:46:41.704Z,1.48
2017-12-11T00:49:13.165Z,1.52
2017-12-11T00:51:45.024Z,1.40
2017-12-11T00:54:16.784Z,1.23
2017-12-11T00:56:48.945Z,1.60
2017-12-11T00:59:20.504Z,2.22
2017-12-11T01:01:53.783Z,1.60
2017-12-11T01:04:25.643Z,1.35
2017-12-11T01:07:02.004Z,2.50
2017-12-11T01:09:33.764Z,1.30
2017-12-11T01:12:07.264Z,1.58
2017-12-11T01:14:40.044Z,1.60
2017-12-11T01:17:10.683Z,2.30
2017-12-11T01:19:44.284Z,2.55
2017-12-11T01:22:16.044Z,2.53
2017-12-11T01:24:46.584Z,2.47
2017-12-11T01:27:19.044Z,2.50
2017-12-11T01:29:50.804Z,2.65
2017-12-11T01:32:22.623Z,2.70
2017-12-11T01:34:54.824Z,2.70
2017-12-11T01:37:26.684Z,2.72
2017-12-11T01:39:58.585Z,2.87
2017-12-11T01:42:34.405Z,2.28
2017-12-11T01:45:07.284Z,2.05
2017-12-11T01:47:39.443Z,2.90
2017-12-11T01:50:10.404Z,2.67
2017-12-11T01:52:42.644Z,2.45
2017-12-11T01:55:14.824Z,2.83
2017-12-11T01:57:48.928Z,4.57
2017-12-11T02:00:26.524Z,3.10
2017-12-11T02:02:58.884Z,3.03
2017-12-11T02:05:32.284Z,3.58
2017-12-11T02:08:04.264Z,3.28
2017-12-11T02:10:38.164Z,2.20
2017-12-11T02:13:09.584Z,1.95
2017-12-11T02:15:42.084Z,1.80
2017-12-11T02:18:16.703Z,3.45
2017-12-11T02:20:48.624Z,2.35
2017-12-11T02:23:24.204Z,2.65
2017-12-11T02:25:56.483Z,2.50
2017-12-11T02:28:28.584Z,2.60
2017-12-11T02:31:00.804Z,2.90
2017-12-11T02:33:32.265Z,3.60
2017-12-11T02:36:04.144Z,4.00
2017-12-11T02:38:35.484Z,4.07
2017-12-11T02:41:06.830Z,3.55
2017-12-11T02:43:38.164Z,3.03
2017-12-11T02:46:09.205Z,3.30
2017-12-11T02:48:41.584Z,3.40
2017-12-11T02:51:13.765Z,4.12
2017-12-11T02:53:48.065Z,3.87
2017-12-11T02:56:19.924Z,3.17
2017-12-11T02:58:51.683Z,3.67
2017-12-11T03:01:24.264Z,4.35
2017-12-11T03:03:58.163Z,3.50
2017-12-11T03:06:32.084Z,5.90
2017-12-11T03:09:02.904Z,5.12
2017-12-11T03:11:33.444Z,4.32
2017-12-11T03:14:04.644Z,4.53
2017-12-11T03:16:35.503Z,5.78
2017-12-11T03:19:07.364Z,4.97
2017-12-11T03:21:39.565Z,4.15
2017-12-11T03:24:13.144Z,3.45
2017-12-11T03:26:44.384Z,3.50
2017-12-11T03:29:16.864Z,3.90
2017-12-11T03:31:49.124Z,2.97
2017-12-11T03:34:20.583Z,3.12
2017-12-11T03:36:51.944Z,3.05
2017-12-11T03:39:23.784Z,2.75
2017-12-11T03:41:55.345Z,3.30
2017-12-11T03:44:27.904Z,2.60
2017-12-11T03:46:59.064Z,8.93
2017-12-11T03:49:30.924Z,2.58
2017-12-11T03:52:02.264Z,4.55
2017-12-11T03:54:34.604Z,2.70
2017-12-11T03:57:06.803Z,5.45
2017-12-11T03:59:37.844Z,4.85
2017-12-11T04:02:09.184Z,5.30
2017-12-11T04:04:40.844Z,4.10
2017-12-11T04:07:11.883Z,3.67
2017-12-11T04:09:43.124Z,4.10
2017-12-11T04:12:13.864Z,4.20
2017-12-11T04:14:45.924Z,2.50
2017-12-11T04:17:17.784Z,3.15
2017-12-11T04:19:49.344Z,2.65
2017-12-11T04:22:22.224Z,5.22
2017-12-11T04:24:53.064Z,3.90
2017-12-11T04:27:25.524Z,3.17
2017-12-11T04:29:58.304Z,2.45
2017-12-11T04:32:28.844Z,7.75
2017-12-11T04:35:00.604Z,2.80
2017-12-11T04:37:31.224Z,5.10
2017-12-11T04:40:02.584Z,9.25
2017-12-11T04:42:32.512Z,5.18
2017-12-11T04:45:03.524Z,4.50
2017-12-11T04:47:37.423Z,4.75
2017-12-11T04:50:08.784Z,3.30
2017-12-11T04:52:42.784Z,9.43
2017-12-11T04:55:16.604Z,11.80
2017-12-11T04:57:48.763Z,4.78
2017-12-11T05:00:19.604Z,7.55
2017-12-11T05:02:52.472Z,7.05
2017-12-11T05:05:24.144Z,7.80
2017-12-11T05:07:54.564Z,5.03
2017-12-11T05:10:26.623Z,6.57
2017-12-11T05:12:57.764Z,3.92
2017-12-11T05:15:29.944Z,5.72
2017-12-11T05:18:02.428Z,4.37
2017-12-11T05:20:31.604Z,5.20
2017-12-11T05:23:02.522Z,4.55
2017-12-11T05:25:33.631Z,4.05
2017-12-11T05:28:05.609Z,7.30
2017-12-11T05:30:36.787Z,5.90
2017-12-11T05:33:07.096Z,12.48
2017-12-11T05:35:39.162Z,2.30
2017-12-11T05:38:10.838Z,1.27
2017-12-11T05:40:41.618Z,1.95
2017-12-11T05:43:13.838Z,1.70
2017-12-11T05:45:46.718Z,0.98
2017-12-11T05:48:18.637Z,1.27
2017-12-11T05:50:50.979Z,1.95
2017-12-11T05:53:23.009Z,5.00
2017-12-11T05:55:55.589Z,6.80
2017-12-11T05:58:26.730Z,2.10
2017-12-11T06:00:58.190Z,2.58
2017-12-11T06:03:29.850Z,4.62
2017-12-11T06:06:01.190Z,2.50
2017-12-11T06:08:32.030Z,3.00
2017-12-11T06:11:03.890Z,3.65
2017-12-11T06:13:34.610Z,2.30
2017-12-11T06:16:06.650Z,4.00
2017-12-11T06:18:37.610Z,2.72
2017-12-11T06:21:14.381Z,3.55
2017-12-11T06:23:46.541Z,3.90
2017-12-11T06:26:16.771Z,4.05
2017-12-11T06:28:48.851Z,4.22
2017-12-11T06:31:21.211Z,4.20
2017-12-11T06:33:52.250Z,3.30
2017-12-11T06:36:23.091Z,3.08
2017-12-11T06:38:54.551Z,2.85
2017-12-11T06:41:26.811Z,1.75
2017-12-11T06:44:02.770Z,1.95
2017-12-11T06:46:34.611Z,1.48
2017-12-11T06:49:07.091Z,3.50
2017-12-11T06:51:40.491Z,5.65
2017-12-11T06:54:12.751Z,3.83
2017-12-11T06:56:45.751Z,0.65
2017-12-11T06:59:17.490Z,0.90
2017-12-11T07:01:49.051Z,0.60
2017-12-11T07:04:20.670Z,4.32
2017-12-11T07:06:52.891Z,3.47
2017-12-11T07:09:25.150Z,3.10
2017-12-11T07:12:00.511Z,1.00
2017-12-11T07:14:33.271Z,2.70
2017-12-11T07:17:05.651Z,2.08
2017-12-11T07:19:37.191Z,2.53
2017-12-11T07:22:11.111Z,0.68
2017-12-11T07:24:47.370Z,1.02
2017-12-11T07:27:19.331Z,3.08
2017-12-11T07:29:50.251Z,1.27
2017-12-11T07:32:23.251Z,1.50
2017-12-11T07:34:55.581Z,2.87
2017-12-11T07:37:26.151Z,1.23
2017-12-11T07:40:00.371Z,2.05
2017-12-11T07:42:32.111Z,2.45
2017-12-11T07:45:06.330Z,1.02
2017-12-11T07:47:46.631Z,2.35
2017-12-11T07:50:19.871Z,1.75
2017-12-11T07:52:54.411Z,2.37
2017-12-11T07:55:25.951Z,1.55
2017-12-11T07:57:56.991Z,1.10
2017-12-11T08:00:27.931Z,1.25
2017-12-11T08:02:59.500Z,1.80
2017-12-11T08:05:32.071Z,1.50
2017-12-11T08:08:06.271Z,1.00
2017-12-11T08:10:37.714Z,7.32
2017-12-11T08:13:12.631Z,2.75
2017-12-11T08:15:44.311Z,2.85
2017-12-11T08:18:16.590Z,2.40
2017-12-11T08:20:50.086Z,2.10
2017-12-11T08:23:22.746Z,3.78
2017-12-11T08:25:54.825Z,23.55
2017-12-11T08:28:28.006Z,5.47
2017-12-11T08:30:59.866Z,4.07
2017-12-11T08:33:30.666Z,5.35
2017-12-11T08:36:04.206Z,6.05
2017-12-11T08:38:36.587Z,2.78
2017-12-11T08:41:13.338Z,1.87
2017-12-11T08:43:44.668Z,1.40
2017-12-11T08:46:16.256Z,3.33
2017-12-11T08:48:49.848Z,2.22
2017-12-11T08:51:22.322Z,1.27
2017-12-11T08:53:54.188Z,2.62
2017-12-11T08:56:25.127Z,1.50
2017-12-11T08:58:59.748Z,7.28
2017-12-11T09:01:31.196Z,4.18
2017-12-11T09:04:02.768Z,5.20
2017-12-11T09:06:34.814Z,4.20
2017-12-11T09:09:07.288Z,10.32
2017-12-11T09:11:39.148Z,1.92
2017-12-11T09:14:13.168Z,6.10
2017-12-11T09:16:44.305Z,3.33
2017-12-11T09:19:17.648Z,2.42
2017-12-11T09:21:49.841Z,3.53
2017-12-11T09:24:20.915Z,3.03
2017-12-11T09:26:55.027Z,3.35
2017-12-11T09:29:26.967Z,4.22
2017-12-11T09:31:59.247Z,7.40
2017-12-11T09:34:30.387Z,5.45
2017-12-11T09:37:02.347Z,11.65
2017-12-11T09:39:35.747Z,13.27
2017-12-11T09:42:10.633Z,7.22
2017-12-11T09:44:43.576Z,8.52
2017-12-11T09:47:17.046Z,6.35
2017-12-11T09:49:49.336Z,17.90
2017-12-11T09:52:21.659Z,17.02
2017-12-11T09:54:54.166Z,13.55
2017-12-11T09:57:28.288Z,6.47
2017-12-11T09:59:59.630Z,6.43
2017-12-11T10:02:30.052Z,9.13
2017-12-11T10:05:01.913Z,7.85
2017-12-11T10:07:33.872Z,7.72
2017-12-11T10:10:05.337Z,10.63
2017-12-11T10:12:39.561Z,10.63
2017-12-11T10:15:13.039Z,9.80
2017-12-11T10:17:44.893Z,11.20
2017-12-11T10:20:16.651Z,11.35
2017-12-11T10:22:47.392Z,9.32
2017-12-11T10:25:19.752Z,10.10
2017-12-11T10:27:50.652Z,11.27
2017-12-11T10:30:21.732Z,10.65
2017-12-11T10:32:55.228Z,9.68
2017-12-11T10:35:27.414Z,10.90
2017-12-11T10:37:58.444Z,16.67
2017-12-11T10:40:31.637Z,13.02
2017-12-11T10:43:05.645Z,11.40
2017-12-11T10:45:38.226Z,14.55
2017-12-11T10:48:13.365Z,11.40
2017-12-11T10:50:44.905Z,15.30
2017-12-11T10:53:20.565Z,14.30
2017-12-11T10:55:52.205Z,11.95
2017-12-11T10:58:24.485Z,12.50
2017-12-11T11:00:56.726Z,24.17
2017-12-11T11:03:29.425Z,13.68
2017-12-11T11:06:01.505Z,15.57
2017-12-11T11:08:34.086Z,15.45
2017-12-11T11:11:05.685Z,19.98
2017-12-11T11:13:37.287Z,16.17
2017-12-11T11:16:09.726Z,15.07
2017-12-11T11:18:41.506Z,22.37
2017-12-11T11:21:15.326Z,26.87
2017-12-11T11:23:47.666Z,15.23
2017-12-11T11:26:21.087Z,12.23
2017-12-11T11:28:52.429Z,10.90
2017-12-11T11:31:23.466Z,8.82
2017-12-11T11:33:55.846Z,7.15
2017-12-11T11:36:28.426Z,8.90
2017-12-11T11:39:00.786Z,2.62
2017-12-11T11:41:31.226Z,2.17
2017-12-11T11:44:02.147Z,3.65
2017-12-11T11:46:32.872Z,1.20
2017-12-11T11:49:07.671Z,2.85
2017-12-11T11:51:42.146Z,2.53
2017-12-11T11:54:13.366Z,1.17
2017-12-11T11:56:45.332Z,1.00
2017-12-11T11:59:19.859Z,4.93
2017-12-11T12:01:51.617Z,1.40
2017-12-11T12:04:22.358Z,2.05
2017-12-11T12:06:53.599Z,2.28
2017-12-11T12:09:26.178Z,2.65
2017-12-11T12:11:57.519Z,2.70
2017-12-11T12:14:32.038Z,3.35
2017-12-11T12:17:04.211Z,2.58
2017-12-11T12:19:37.491Z,3.28
2017-12-11T12:22:10.992Z,5.97
2017-12-11T12:24:42.453Z,4.15
2017-12-11T12:27:13.591Z,2.12
2017-12-11T12:29:45.752Z,2.08
2017-12-11T12:32:18.712Z,1.12
2017-12-11T12:34:54.299Z,0.70
2017-12-11T12:37:29.690Z,0.75
2017-12-11T12:40:00.780Z,0.50
2017-12-11T12:42:35.095Z,2.87
2017-12-11T12:45:07.072Z,0.90
2017-12-11T12:47:38.091Z,0.77
2017-12-11T12:50:12.109Z,1.62
2017-12-11T12:52:44.288Z,1.40
2017-12-11T12:55:14.908Z,1.80
2017-12-11T12:57:46.968Z,1.58
2017-12-11T13:00:20.053Z,1.65
2017-12-11T13:02:51.511Z,1.77
2017-12-11T13:05:25.308Z,0.80
2017-12-11T13:07:57.569Z,0.70
2017-12-11T13:10:31.669Z,0.75
2017-12-11T13:13:07.949Z,0.80
2017-12-11T13:15:38.989Z,1.00
2017-12-11T13:18:10.228Z,1.52
2017-12-11T13:20:40.968Z,1.40
2017-12-11T13:23:11.818Z,1.70
2017-12-11T13:25:44.439Z,1.42
2017-12-11T13:28:18.198Z,0.70
2017-12-11T13:30:50.058Z,1.27
2017-12-11T13:33:20.999Z,0.45
2017-12-11T13:35:52.657Z,0.70
2017-12-11T13:38:23.897Z,1.95
2017-12-11T13:40:55.539Z,2.70
2017-12-11T13:43:26.798Z,0.50
2017-12-11T13:45:58.356Z,2.78
2017-12-11T13:48:29.378Z,4.20
2017-12-11T13:51:03.898Z,0.50
2017-12-11T13:53:42.680Z,1.75
2017-12-11T13:56:17.446Z,5.05
2017-12-11T13:58:50.946Z,0.80
2017-12-11T14:01:22.093Z,1.17
2017-12-11T14:03:53.432Z,0.68
2017-12-11T14:06:25.691Z,0.88
2017-12-11T14:08:57.581Z,2.95
2017-12-11T14:11:29.692Z,8.57
2017-12-11T14:14:02.020Z,7.62
2017-12-11T14:16:32.932Z,7.62
2017-12-11T14:19:04.912Z,8.95
2017-12-11T14:21:38.201Z,16.83
2017-12-11T14:24:11.168Z,12.00
2017-12-11T14:26:42.676Z,9.18
2017-12-11T14:29:14.389Z,8.55
2017-12-11T14:31:46.454Z,8.75
2017-12-11T14:34:20.153Z,8.55
2017-12-11T14:36:52.683Z,9.25
2017-12-11T14:39:25.935Z,10.68
2017-12-11T14:41:56.695Z,8.45
2017-12-11T14:44:29.023Z,11.48
2017-12-11T14:47:00.733Z,10.57
2017-12-11T14:49:32.229Z,10.18
2017-12-11T14:52:04.917Z,9.73
2017-12-11T14:54:36.872Z,9.95
2017-12-11T14:57:07.923Z,12.05
2017-12-11T14:59:38.543Z,11.98
2017-12-11T15:02:10.684Z,8.65
2017-12-11T15:04:43.688Z,9.45
2017-12-11T15:07:14.543Z,10.93
2017-12-11T15:09:50.182Z,11.12
2017-12-11T15:12:21.643Z,6.45
2017-12-11T15:14:54.203Z,5.87
2017-12-11T15:17:25.255Z,8.55
2017-12-11T15:19:57.002Z,6.32
2017-12-11T15:22:33.668Z,7.95
2017-12-11T15:25:05.224Z,8.38
2017-12-11T15:27:36.680Z,10.65
2017-12-11T15:30:07.524Z,7.53
2017-12-11T15:32:39.724Z,6.60
2017-12-11T15:35:10.524Z,8.48
2017-12-11T15:37:44.524Z,7.75
2017-12-11T15:40:15.704Z,8.25
2017-12-11T15:42:48.864Z,4.70
2017-12-11T15:45:20.624Z,4.68
2017-12-11T15:47:52.585Z,2.90
2017-12-11T15:50:24.544Z,2.30
2017-12-11T15:53:00.708Z,1.65
2017-12-11T15:55:32.565Z,2.85
2017-12-11T15:58:07.742Z,1.25
2017-12-11T16:00:39.664Z,17.52
2017-12-11T16:03:11.704Z,1.70
2017-12-11T16:05:43.884Z,1.40
2017-12-11T16:08:15.124Z,1.90
2017-12-11T16:10:47.085Z,2.45
2017-12-11T16:13:22.344Z,1.60
2017-12-11T16:15:57.197Z,2.10
2017-12-11T16:18:29.646Z,1.98
2017-12-11T16:21:01.612Z,2.80
2017-12-11T16:23:33.145Z,2.70
2017-12-11T16:26:07.726Z,1.95
2017-12-11T16:28:40.709Z,2.12
2017-12-11T16:31:13.845Z,1.90
2017-12-11T16:33:48.592Z,1.75
2017-12-11T16:36:20.713Z,2.08
2017-12-11T16:38:53.113Z,2.65
2017-12-11T16:41:26.812Z,1.30
2017-12-11T16:43:58.172Z,2.22
2017-12-11T16:46:29.093Z,1.50
2017-12-11T16:49:01.175Z,2.00
2017-12-11T16:51:32.412Z,4.22
2017-12-11T16:54:04.376Z,1.42
2017-12-11T16:56:36.859Z,1.40
2017-12-11T16:59:07.998Z,1.00
2017-12-11T17:01:41.399Z,3.58
2017-12-11T17:04:12.638Z,1.50
2017-12-11T17:06:45.018Z,1.37
2017-12-11T17:09:16.158Z,1.70
2017-12-11T17:11:46.719Z,1.55
2017-12-11T17:14:17.817Z,2.65
2017-12-11T17:16:48.238Z,1.70
2017-12-11T17:19:19.378Z,3.10
2017-12-11T17:21:52.726Z,2.78
2017-12-11T17:24:26.678Z,2.28
2017-12-11T17:26:57.838Z,1.42
2017-12-11T17:29:30.206Z,1.30
2017-12-11T17:32:02.165Z,1.00
2017-12-11T17:34:33.319Z,1.00
2017-12-11T17:37:04.659Z,0.70
2017-12-11T17:39:36.919Z,0.70
2017-12-11T17:42:09.698Z,1.90
2017-12-11T17:44:41.579Z,1.02
2017-12-11T17:47:13.618Z,1.12
2017-12-11T17:49:45.740Z,1.45
2017-12-11T17:52:18.387Z,3.05
2017-12-11T17:54:50.958Z,2.15
2017-12-11T17:57:23.070Z,2.70
2017-12-11T17:59:54.558Z,3.10
2017-12-11T18:02:27.718Z,1.87
2017-12-11T18:04:57.679Z,5.55
2017-12-11T18:07:29.218Z,3.00
2017-12-11T18:10:01.080Z,2.75
2017-12-11T18:12:33.259Z,4.93
2017-12-11T18:15:04.207Z,5.47
2017-12-11T18:17:35.439Z,3.05
2017-12-11T18:20:07.398Z,6.12
2017-12-11T18:22:38.838Z,1.73
2017-12-11T18:25:12.543Z,1.90
2017-12-11T18:27:43.278Z,5.35
2017-12-11T18:30:14.119Z,2.60
2017-12-11T18:32:45.058Z,2.50
2017-12-11T18:35:17.518Z,9.38
2017-12-11T18:37:51.838Z,7.75
2017-12-11T18:40:22.480Z,3.25
2017-12-11T18:42:54.118Z,5.82
2017-12-11T18:45:26.178Z,2.20
2017-12-11T18:48:04.299Z,8.48
2017-12-11T18:50:36.738Z,1.65
2017-12-11T18:53:11.400Z,2.50
2017-12-11T18:55:43.259Z,1.30
2017-12-11T18:58:15.639Z,2.83
2017-12-11T19:00:46.739Z,2.25
2017-12-11T19:03:19.158Z,1.52
2017-12-11T19:05:50.758Z,0.80
2017-12-11T19:08:22.258Z,1.70
2017-12-11T19:10:56.258Z,1.70
2017-12-11T19:13:27.765Z,2.30
2017-12-11T19:16:00.278Z,2.10
2017-12-11T19:18:31.947Z,2.42
2017-12-11T19:21:03.706Z,3.95
2017-12-11T19:23:37.899Z,2.30
2017-12-11T19:26:11.298Z,3.17
2017-12-11T19:28:43.159Z,5.40
2017-12-11T19:31:15.318Z,3.20
2017-12-11T19:33:46.264Z,2.40
2017-12-11T19:36:18.420Z,3.20
2017-12-11T19:38:56.358Z,2.90
2017-12-11T19:41:29.420Z,3.65
2017-12-11T19:44:02.771Z,3.37
2017-12-11T19:46:35.388Z,3.40
2017-12-11T19:49:06.530Z,3.95
2017-12-11T19:51:37.470Z,2.72
2017-12-11T19:54:09.849Z,1.80
2017-12-11T19:56:43.850Z,3.03
2017-12-11T19:59:14.990Z,2.42
2017-12-11T20:01:47.069Z,5.20
2017-12-11T20:04:20.249Z,3.17
2017-12-11T20:06:51.689Z,2.58
2017-12-11T20:09:24.289Z,2.45
2017-12-11T20:11:56.448Z,3.75
2017-12-11T20:14:27.689Z,2.45
2017-12-11T20:16:59.731Z,1.85
2017-12-11T20:19:30.909Z,5.40
2017-12-11T20:22:02.449Z,2.92
2017-12-11T20:24:34.209Z,2.90
2017-12-11T20:27:09.350Z,4.20
2017-12-11T20:29:49.612Z,5.93
2017-12-11T20:32:21.349Z,3.45
2017-12-11T20:34:52.729Z,3.60
2017-12-11T20:37:25.489Z,3.40
2017-12-11T20:40:02.753Z,3.97
2017-12-11T20:42:35.650Z,2.58
2017-12-11T20:45:09.749Z,2.47
2017-12-11T20:47:41.631Z,2.60
2017-12-11T20:50:15.450Z,4.00
2017-12-11T20:52:48.209Z,3.25
2017-12-11T20:55:21.410Z,1.90
2017-12-11T20:57:52.876Z,5.72
2017-12-11T21:00:25.529Z,2.10
2017-12-11T21:02:59.451Z,1.33
2017-12-11T21:05:31.189Z,6.35
2017-12-11T21:08:01.434Z,2.12
2017-12-11T21:10:34.293Z,3.03
2017-12-11T21:13:05.649Z,2.75
2017-12-11T21:15:40.369Z,2.10
2017-12-11T21:18:11.429Z,2.85
2017-12-11T21:20:43.489Z,1.75
2017-12-11T21:23:15.844Z,0.95
2017-12-11T21:25:47.509Z,0.82
2017-12-11T21:28:19.570Z,1.20
2017-12-11T21:30:50.789Z,0.70
2017-12-11T21:33:22.370Z,1.60
2017-12-11T21:35:55.049Z,0.73
2017-12-11T21:38:26.750Z,1.10
2017-12-11T21:40:58.449Z,1.40
2017-12-11T21:43:32.989Z,3.00
2017-12-11T21:46:05.449Z,1.40
2017-12-11T21:48:37.009Z,0.60
2017-12-11T21:51:08.369Z,0.80
2017-12-11T21:53:40.629Z,1.90
2017-12-11T21:56:11.749Z,1.85
2017-12-11T21:58:49.769Z,2.08
2017-12-11T22:01:21.229Z,1.20
2017-12-11T22:03:53.289Z,2.08
2017-12-11T22:06:24.330Z,0.73
2017-12-11T22:08:56.589Z,0.70
2017-12-11T22:11:28.689Z,0.75
2017-12-11T22:14:03.750Z,1.60
2017-12-11T22:16:42.229Z,0.73
2017-12-11T22:19:18.749Z,0.50
2017-12-11T22:21:50.949Z,0.95
2017-12-11T22:24:22.769Z,0.93
2017-12-11T22:26:54.869Z,0.57
2017-12-11T22:29:27.149Z,0.60
2017-12-11T22:31:58.775Z,0.70
2017-12-11T22:34:30.350Z,0.65
2017-12-11T22:37:01.489Z,1.00
2017-12-11T22:39:33.349Z,0.82
2017-12-11T22:42:04.769Z,0.50
2017-12-11T22:44:36.809Z,0.70
2017-12-11T22:47:08.929Z,0.90
2017-12-11T22:49:42.770Z,0.50
2017-12-11T22:52:17.248Z,0.40
2017-12-11T22:54:49.309Z,0.40
2017-12-11T22:57:21.270Z,0.60
2017-12-11T22:59:53.449Z,0.50
2017-12-11T23:02:24.689Z,0.77
2017-12-11T23:04:57.989Z,0.95
2017-12-11T23:07:29.029Z,0.65
2017-12-11T23:10:00.867Z,0.50
2017-12-11T23:12:32.227Z,0.65
2017-12-11T23:15:10.769Z,0.70
2017-12-11T23:17:43.527Z,0.50
2017-12-11T23:20:14.799Z,0.40
2017-12-11T23:22:46.327Z,0.50
2017-12-11T23:25:17.999Z,0.70
2017-12-11T23:27:49.808Z,0.45
2017-12-11T23:30:22.730Z,0.55
2017-12-11T23:32:53.847Z,0.40
2017-12-11T23:35:24.188Z,0.50
2017-12-11T23:37:55.807Z,0.50
2017-12-11T23:40:27.607Z,0.40
2017-12-11T23:42:56.908Z,0.40
2017-12-11T23:45:28.347Z,0.50
2017-12-11T23:48:00.207Z,0.40
2017-12-11T23:50:32.167Z,0.62
2017-12-11T23:53:04.439Z,0.40
2017-12-11T23:55:36.298Z,0.40
2017-12-11T23:58:07.019Z,0.50
